createdAt,value
2022-11-03T00:01:14.664Z,6.44
2022-11-03T00:03:41.348Z,6.33
2022-11-03T00:06:08.281Z,6.36
2022-11-03T00:08:38.272Z,6.46
2022-11-03T00:11:10.251Z,6.42
2022-11-03T00:13:38.282Z,6.27
2022-11-03T00:16:05.711Z,6.26
2022-11-03T00:18:32.419Z,6.27
2022-11-03T00:21:01.969Z,6.39
2022-11-03T00:23:30.801Z,6.36
2022-11-03T00:26:12.378Z,6.37
2022-11-03T00:28:40.911Z,6.37
2022-11-03T00:31:11.153Z,6.24
2022-11-03T00:33:39.408Z,6.31
2022-11-03T00:36:07.161Z,6.30
2022-11-03T00:38:34.209Z,6.27
2022-11-03T00:41:03.594Z,6.20
2022-11-03T00:43:36.755Z,6.19
2022-11-03T00:46:05.411Z,6.20
2022-11-03T00:48:33.787Z,6.02
2022-11-03T00:51:11.727Z,5.89
2022-11-03T00:53:41.118Z,6.01
2022-11-03T00:56:12.087Z,5.92
2022-11-03T00:58:38.733Z,5.76
2022-11-03T01:01:08.269Z,5.66
2022-11-03T01:03:37.817Z,5.61
2022-11-03T01:06:23.063Z,5.61
2022-11-03T01:08:49.722Z,5.70
2022-11-03T01:11:34.802Z,5.73
2022-11-03T01:14:01.537Z,5.56
2022-11-03T01:16:29.502Z,5.49
2022-11-03T01:18:56.579Z,5.59
2022-11-03T01:21:23.911Z,5.66
2022-11-03T01:23:51.564Z,5.71
2022-11-03T01:26:18.299Z,5.74
2022-11-03T01:28:46.680Z,5.74
2022-11-03T01:31:17.939Z,5.70
2022-11-03T01:33:46.121Z,5.73
2022-11-03T01:36:14.510Z,5.57
2022-11-03T01:38:42.855Z,5.64
2022-11-03T01:41:16.611Z,5.69
2022-11-03T01:43:44.003Z,5.59
2022-11-03T01:46:11.672Z,5.49
2022-11-03T01:48:45.573Z,5.45
2022-11-03T01:51:16.386Z,5.31
2022-11-03T01:53:47.447Z,5.50
2022-11-03T01:56:16.692Z,5.29
2022-11-03T01:58:49.397Z,5.32
2022-11-03T02:01:16.844Z,5.37
2022-11-03T02:03:51.313Z,5.47
2022-11-03T02:06:23.363Z,5.50
2022-11-03T02:08:57.003Z,5.43
2022-11-03T02:11:39.066Z,5.20
2022-11-03T02:14:05.658Z,5.36
2022-11-03T02:16:33.205Z,5.42
2022-11-03T02:19:02.244Z,5.47
2022-11-03T02:21:39.993Z,5.48
2022-11-03T02:24:06.582Z,5.49
2022-11-03T02:26:33.285Z,5.47
2022-11-03T02:28:59.957Z,5.53
2022-11-03T02:31:36.723Z,5.24
2022-11-03T02:34:04.306Z,5.34
2022-11-03T02:36:56.221Z,5.37
2022-11-03T02:39:34.835Z,5.30
2022-11-03T02:42:03.711Z,5.18
2022-11-03T02:44:33.360Z,5.10
2022-11-03T02:47:04.006Z,5.07
2022-11-03T02:49:30.697Z,5.10
2022-11-03T02:52:05.682Z,5.19
2022-11-03T02:54:38.606Z,5.23
2022-11-03T02:57:15.912Z,5.25
2022-11-03T02:59:56.093Z,5.04
2022-11-03T03:02:34.278Z,5.00
2022-11-03T03:05:03.977Z,5.02
2022-11-03T03:07:37.246Z,5.09
2022-11-03T03:10:03.919Z,5.10
2022-11-03T03:12:33.843Z,5.14
2022-11-03T03:15:02.570Z,5.17
2022-11-03T03:17:44.300Z,5.23
2022-11-03T03:20:28.535Z,5.10
2022-11-03T03:23:05.101Z,4.92
2022-11-03T03:25:41.620Z,4.92
2022-11-03T03:28:15.820Z,4.93
2022-11-03T03:30:48.923Z,4.96
2022-11-03T03:33:17.933Z,5.05
2022-11-03T03:35:48.924Z,5.11
2022-11-03T03:38:23.568Z,5.17
2022-11-03T03:40:54.950Z,5.28
2022-11-03T03:43:28.177Z,5.26
2022-11-03T03:45:58.739Z,5.25
2022-11-03T03:48:25.342Z,5.23
2022-11-03T03:50:52.742Z,5.30
2022-11-03T03:53:19.883Z,5.35
2022-11-03T03:55:50.401Z,5.35
2022-11-03T03:58:17.301Z,5.41
2022-11-03T04:00:44.744Z,5.34
2022-11-03T04:03:17.705Z,5.35
2022-11-03T04:05:45.387Z,5.33
2022-11-03T04:08:13.505Z,5.17
2022-11-03T04:10:41.289Z,5.20
2022-11-03T04:13:24.019Z,5.28
2022-11-03T04:15:52.080Z,5.31
2022-11-03T04:18:35.582Z,5.31
2022-11-03T04:21:17.634Z,5.25
2022-11-03T04:23:44.447Z,5.27
2022-11-03T04:26:15.283Z,5.24
2022-11-03T04:28:42.525Z,5.28
2022-11-03T04:31:18.314Z,5.32
2022-11-03T04:33:45.993Z,5.32
2022-11-03T04:36:18.182Z,5.32
2022-11-03T04:38:45.573Z,5.29
2022-11-03T04:41:18.039Z,5.28
2022-11-03T04:43:46.617Z,5.28
2022-11-03T04:46:16.975Z,5.33
2022-11-03T04:48:44.318Z,5.29
2022-11-03T04:51:16.353Z,5.26
2022-11-03T04:53:54.363Z,5.22
2022-11-03T04:56:24.472Z,5.17
2022-11-03T04:58:52.402Z,5.19
2022-11-03T05:01:24.261Z,5.09
2022-11-03T05:03:54.353Z,5.12
2022-11-03T05:06:26.877Z,4.91
2022-11-03T05:08:58.407Z,4.97
2022-11-03T05:11:34.810Z,5.02
2022-11-03T05:14:02.718Z,5.07
2022-11-03T05:16:30.639Z,5.10
2022-11-03T05:18:57.595Z,5.09
2022-11-03T05:21:26.741Z,5.11
2022-11-03T05:23:58.213Z,4.99
2022-11-03T05:26:30.121Z,5.03
2022-11-03T05:29:00.029Z,5.03
2022-11-03T05:31:29.682Z,5.00
2022-11-03T05:34:00.045Z,4.95
2022-11-03T05:36:29.948Z,4.94
2022-11-03T05:39:06.039Z,4.95
2022-11-03T05:41:32.746Z,4.72
2022-11-03T05:44:02.856Z,4.65
2022-11-03T05:46:31.694Z,4.56
2022-11-03T05:49:01.064Z,4.67
2022-11-03T05:51:34.328Z,4.73
2022-11-03T05:54:04.420Z,4.83
2022-11-03T05:56:32.957Z,4.65
2022-11-03T05:59:00.755Z,4.54
2022-11-03T06:01:34.432Z,4.56
2022-11-03T06:04:15.877Z,4.47
2022-11-03T06:06:42.647Z,4.45
2022-11-03T06:09:14.049Z,4.57
2022-11-03T06:11:41.723Z,4.57
2022-11-03T06:14:23.961Z,4.63
2022-11-03T06:17:02.119Z,4.65
2022-11-03T06:19:35.698Z,4.66
2022-11-03T06:22:15.523Z,4.64
2022-11-03T06:24:42.462Z,4.63
2022-11-03T06:27:15.191Z,4.54
2022-11-03T06:29:46.841Z,4.55
2022-11-03T06:32:13.789Z,4.63
2022-11-03T06:34:46.069Z,4.56
2022-11-03T06:37:25.814Z,4.64
2022-11-03T06:39:59.977Z,4.64
2022-11-03T06:42:31.931Z,4.59
2022-11-03T06:44:59.142Z,4.71
2022-11-03T06:47:27.887Z,4.73
2022-11-03T06:49:58.240Z,4.83
2022-11-03T06:52:45.811Z,4.88
2022-11-03T06:55:15.710Z,4.97
2022-11-03T06:57:47.195Z,5.00
2022-11-03T07:00:33.095Z,5.06
2022-11-03T07:03:09.314Z,5.13
2022-11-03T07:05:36.892Z,5.18
2022-11-03T07:08:17.353Z,5.25
2022-11-03T07:10:44.210Z,5.31
2022-11-03T07:13:15.785Z,5.35
2022-11-03T07:15:44.743Z,5.45
2022-11-03T07:18:29.428Z,5.56
2022-11-03T07:20:57.889Z,5.72
2022-11-03T07:23:29.306Z,5.88
2022-11-03T07:26:00.406Z,5.97
2022-11-03T07:28:33.232Z,6.11
2022-11-03T07:31:16.558Z,6.20
2022-11-03T07:33:44.034Z,6.28
2022-11-03T07:36:16.831Z,6.48
2022-11-03T07:38:46.217Z,6.67
2022-11-03T07:41:19.567Z,6.93
2022-11-03T07:43:58.033Z,7.14
2022-11-03T07:46:26.361Z,7.38
2022-11-03T07:49:03.252Z,7.65
2022-11-03T07:51:33.589Z,7.81
2022-11-03T07:54:16.779Z,8.18
2022-11-03T07:56:47.390Z,8.51
2022-11-03T07:59:19.008Z,8.77
2022-11-03T08:01:49.353Z,8.97
2022-11-03T08:04:21.665Z,9.07
2022-11-03T08:06:48.564Z,9.42
2022-11-03T08:09:15.894Z,9.71
2022-11-03T08:11:42.545Z,9.88
2022-11-03T08:14:10.379Z,9.93
2022-11-03T08:16:37.544Z,10.17
2022-11-03T08:19:04.191Z,10.37
2022-11-03T08:21:30.892Z,10.57
2022-11-03T08:23:57.562Z,10.78
2022-11-03T08:26:24.376Z,11.12
2022-11-03T08:28:50.974Z,11.12
2022-11-03T08:31:17.640Z,10.96
2022-11-03T08:33:44.446Z,10.92
2022-11-03T08:36:11.833Z,10.93
2022-11-03T08:38:41.710Z,10.97
2022-11-03T08:41:08.444Z,10.98
2022-11-03T08:43:35.132Z,10.98
2022-11-03T08:46:08.404Z,11.24
2022-11-03T08:48:40.274Z,11.36
2022-11-03T08:51:08.453Z,11.53
2022-11-03T08:53:35.425Z,11.63
2022-11-03T08:56:02.148Z,11.64
2022-11-03T08:58:28.951Z,11.66
2022-11-03T09:00:55.535Z,11.56
2022-11-03T09:03:22.362Z,11.81
2022-11-03T09:05:49.107Z,11.82
2022-11-03T09:11:02.414Z,12.10
2022-11-03T09:13:29.002Z,12.19
2022-11-03T09:15:55.619Z,12.19
2022-11-03T09:18:22.769Z,12.10
2022-11-03T09:20:49.422Z,12.38
2022-11-03T09:23:16.019Z,12.31
2022-11-03T09:25:42.650Z,12.48
2022-11-03T09:28:09.685Z,12.48
2022-11-03T09:30:36.701Z,12.71
2022-11-03T09:33:03.949Z,12.72
2022-11-03T09:35:30.658Z,12.63
2022-11-03T09:37:57.687Z,12.77
2022-11-03T09:40:25.391Z,12.91
2022-11-03T09:42:52.369Z,13.07
2022-11-03T09:45:18.975Z,13.23
2022-11-03T09:47:47.309Z,13.53
2022-11-03T09:50:17.177Z,14.05
2022-11-03T09:52:48.761Z,14.34
2022-11-03T09:55:23.206Z,14.71
2022-11-03T09:57:52.934Z,14.86
2022-11-03T10:00:22.462Z,14.99
2022-11-03T10:02:49.790Z,15.08
2022-11-03T10:05:22.819Z,15.33
2022-11-03T10:07:50.629Z,15.49
2022-11-03T10:10:19.819Z,15.55
2022-11-03T10:12:49.007Z,15.62
2022-11-03T10:15:17.266Z,15.85
2022-11-03T10:17:45.258Z,15.52
2022-11-03T10:20:14.643Z,15.64
2022-11-03T10:22:43.520Z,15.77
2022-11-03T10:25:33.479Z,15.62
2022-11-03T10:28:15.532Z,15.57
2022-11-03T10:31:10.078Z,15.61
2022-11-03T10:33:38.813Z,15.48
2022-11-03T10:36:20.703Z,15.30
2022-11-03T10:38:48.141Z,15.42
2022-11-03T10:41:18.236Z,15.76
2022-11-03T10:44:01.685Z,15.83
2022-11-03T10:46:49.261Z,15.97
2022-11-03T10:49:18.512Z,16.12
2022-11-03T10:51:48.311Z,16.19
2022-11-03T10:54:17.654Z,16.23
2022-11-03T10:56:46.200Z,16.13
2022-11-03T10:59:19.072Z,15.95
2022-11-03T11:01:46.307Z,15.92
2022-11-03T11:04:17.497Z,15.95
2022-11-03T11:06:44.825Z,16.08
2022-11-03T11:09:14.540Z,16.01
2022-11-03T11:12:01.032Z,16.10
2022-11-03T11:14:28.292Z,16.18
2022-11-03T11:16:57.106Z,16.14
2022-11-03T11:19:25.788Z,16.25
2022-11-03T11:21:53.749Z,16.27
2022-11-03T11:24:55.528Z,16.28
2022-11-03T11:27:47.175Z,16.38
2022-11-03T11:30:53.650Z,16.37
2022-11-03T11:33:26.057Z,16.40
2022-11-03T11:35:58.762Z,16.43
2022-11-03T11:38:56.145Z,16.41
2022-11-03T11:41:58.029Z,16.34
2022-11-03T11:44:43.916Z,16.27
2022-11-03T11:47:28.221Z,16.30
2022-11-03T11:50:11.518Z,16.32
2022-11-03T11:52:43.332Z,16.29
2022-11-03T11:55:25.215Z,16.37
2022-11-03T11:57:53.255Z,16.43
2022-11-03T12:00:24.785Z,16.41
2022-11-03T12:02:53.310Z,16.46
2022-11-03T12:05:22.878Z,16.42
2022-11-03T12:07:49.938Z,16.42
2022-11-03T12:10:20.144Z,16.57
2022-11-03T12:12:46.936Z,16.64
2022-11-03T12:15:44.210Z,16.62
2022-11-03T12:18:32.800Z,16.61
2022-11-03T12:21:04.016Z,16.73
2022-11-03T12:23:46.535Z,16.72
2022-11-03T12:26:19.272Z,16.76
2022-11-03T12:28:45.925Z,16.74
2022-11-03T12:31:12.788Z,16.58
2022-11-03T12:33:39.648Z,16.71
2022-11-03T12:36:07.185Z,16.79
2022-11-03T12:38:33.901Z,16.79
2022-11-03T12:41:15.680Z,16.88
2022-11-03T12:43:42.332Z,16.85
2022-11-03T12:46:08.999Z,16.83
2022-11-03T12:48:35.563Z,16.87
2022-11-03T12:51:02.177Z,16.90
2022-11-03T12:53:28.771Z,16.94
2022-11-03T12:55:55.391Z,16.97
2022-11-03T12:58:22.026Z,17.07
2022-11-03T13:00:53.828Z,17.16
2022-11-03T13:03:21.857Z,17.14
2022-11-03T13:05:49.283Z,17.14
2022-11-03T13:08:15.913Z,17.20
2022-11-03T13:10:42.570Z,17.24
2022-11-03T13:13:09.671Z,17.25
2022-11-03T13:15:37.581Z,17.26
2022-11-03T13:18:14.061Z,17.24
2022-11-03T13:20:43.002Z,17.29
2022-11-03T13:23:09.858Z,17.32
2022-11-03T13:25:39.731Z,17.43
2022-11-03T13:28:06.416Z,17.42
2022-11-03T13:30:33.779Z,17.42
2022-11-03T13:33:00.415Z,17.44
2022-11-03T13:35:28.492Z,17.47
2022-11-03T13:37:55.200Z,17.49
2022-11-03T13:43:08.447Z,17.55
2022-11-03T13:45:35.557Z,17.55
2022-11-03T13:50:51.986Z,17.59
2022-11-03T13:56:08.644Z,17.87
2022-11-03T14:01:24.102Z,17.96
2022-11-03T14:06:37.374Z,18.03
2022-11-03T14:09:04.091Z,18.10
2022-11-03T14:11:45.940Z,18.16
2022-11-03T14:14:12.541Z,18.12
2022-11-03T14:16:39.233Z,18.34
2022-11-03T14:19:08.909Z,18.47
2022-11-03T14:21:37.521Z,18.50
2022-11-03T14:24:05.842Z,18.55
2022-11-03T14:26:42.221Z,18.47
2022-11-03T14:29:10.272Z,18.36
2022-11-03T14:31:36.995Z,18.27
2022-11-03T14:34:03.659Z,18.10
2022-11-03T14:36:30.280Z,17.96
2022-11-03T14:38:56.862Z,17.76
2022-11-03T14:41:38.746Z,17.71
2022-11-03T14:44:06.152Z,17.46
2022-11-03T14:46:32.945Z,17.33
2022-11-03T14:49:01.726Z,17.08
2022-11-03T14:51:29.211Z,16.97
2022-11-03T14:53:57.579Z,16.79
2022-11-03T14:56:24.977Z,16.57
2022-11-03T14:58:52.046Z,16.42
2022-11-03T15:01:21.001Z,16.24
2022-11-03T15:03:47.734Z,16.10
2022-11-03T15:06:14.484Z,15.88
2022-11-03T15:08:41.239Z,15.74
2022-11-03T15:11:09.969Z,15.57
2022-11-03T15:13:44.000Z,15.41
2022-11-03T15:16:13.823Z,15.29
2022-11-03T15:18:41.436Z,15.28
2022-11-03T15:21:08.068Z,15.29
2022-11-03T15:26:21.245Z,15.02
2022-11-03T15:28:47.888Z,14.89
2022-11-03T15:31:14.905Z,14.74
2022-11-03T15:33:44.733Z,14.70
2022-11-03T15:36:11.913Z,14.54
2022-11-03T15:38:38.712Z,14.54
2022-11-03T15:41:20.928Z,14.51
2022-11-03T15:43:49.439Z,14.28
2022-11-03T15:46:20.854Z,14.25
2022-11-03T15:48:49.129Z,14.17
2022-11-03T15:51:15.993Z,14.11
2022-11-03T15:53:43.850Z,14.07
2022-11-03T15:56:10.960Z,13.96
2022-11-03T15:58:38.158Z,13.88
2022-11-03T16:01:05.435Z,13.68
2022-11-03T16:03:32.680Z,13.59
2022-11-03T16:05:59.641Z,13.42
2022-11-03T16:08:26.579Z,13.31
2022-11-03T16:10:57.695Z,13.29
2022-11-03T16:13:25.608Z,13.28
2022-11-03T16:15:54.540Z,13.08
2022-11-03T16:18:21.421Z,13.12
2022-11-03T16:20:48.215Z,13.09
2022-11-03T16:23:14.863Z,13.10
2022-11-03T16:25:41.610Z,12.90
2022-11-03T16:28:08.500Z,12.79
2022-11-03T16:30:35.493Z,12.70
2022-11-03T16:33:02.214Z,12.72
2022-11-03T16:35:29.760Z,12.66
2022-11-03T16:37:56.473Z,12.60
2022-11-03T16:40:23.720Z,12.59
2022-11-03T16:42:50.440Z,12.57
2022-11-03T16:45:22.405Z,12.51
2022-11-03T16:47:50.817Z,12.39
2022-11-03T16:50:18.725Z,12.44
2022-11-03T16:52:47.255Z,12.44
2022-11-03T16:55:15.521Z,12.26
2022-11-03T16:57:42.591Z,12.28
2022-11-03T17:00:13.300Z,12.18
2022-11-03T17:02:40.012Z,12.13
2022-11-03T17:05:07.342Z,11.94
2022-11-03T17:07:33.968Z,11.99
2022-11-03T17:10:00.813Z,12.01
2022-11-03T17:12:27.455Z,11.96
2022-11-03T17:14:56.659Z,11.99
2022-11-03T17:17:23.698Z,11.87
2022-11-03T17:19:50.617Z,11.89
2022-11-03T17:22:17.258Z,11.80
2022-11-03T17:24:44.102Z,11.76
2022-11-03T17:27:28.516Z,11.70
2022-11-03T17:30:00.292Z,11.68
2022-11-03T17:32:31.604Z,11.61
2022-11-03T17:34:58.969Z,11.67
2022-11-03T17:37:26.758Z,11.64
2022-11-03T17:39:54.155Z,11.54
2022-11-03T17:42:24.907Z,11.59
2022-11-03T17:44:55.507Z,11.51
2022-11-03T17:47:24.146Z,11.48
2022-11-03T17:49:51.168Z,11.52
2022-11-03T17:52:25.128Z,11.21
2022-11-03T17:54:57.528Z,11.30
2022-11-03T17:57:25.723Z,11.22
2022-11-03T17:59:55.379Z,11.18
2022-11-03T18:02:25.755Z,11.22
2022-11-03T18:05:03.159Z,11.05
2022-11-03T18:07:30.042Z,10.91
2022-11-03T18:09:56.693Z,11.00
2022-11-03T18:12:44.867Z,10.95
2022-11-03T18:15:15.795Z,10.98
2022-11-03T18:17:42.517Z,10.92
2022-11-03T18:20:21.996Z,10.97
2022-11-03T18:22:48.664Z,11.00
2022-11-03T18:25:17.681Z,11.05
2022-11-03T18:27:44.753Z,10.89
2022-11-03T18:30:13.767Z,10.91
2022-11-03T18:32:41.368Z,10.83
2022-11-03T18:35:17.162Z,10.83
2022-11-03T18:37:45.421Z,10.89
2022-11-03T18:40:13.787Z,10.93
2022-11-03T18:42:41.007Z,10.83
2022-11-03T18:45:14.017Z,10.89
2022-11-03T18:47:40.800Z,10.87
2022-11-03T18:50:08.651Z,10.88
2022-11-03T18:52:40.764Z,10.88
2022-11-03T18:55:12.130Z,10.86
2022-11-03T18:57:39.714Z,10.87
2022-11-03T19:00:18.897Z,10.90
2022-11-03T19:02:47.491Z,10.97
2022-11-03T19:05:15.941Z,11.02
2022-11-03T19:07:45.369Z,11.11
2022-11-03T19:10:16.009Z,11.18
2022-11-03T19:12:44.410Z,11.22
2022-11-03T19:15:26.784Z,11.28
2022-11-03T19:17:57.045Z,11.35
2022-11-03T19:20:25.472Z,11.40
2022-11-03T19:22:52.811Z,11.47
2022-11-03T19:25:22.673Z,11.54
2022-11-03T19:27:49.665Z,11.57
2022-11-03T19:30:18.695Z,11.60
2022-11-03T19:32:48.904Z,11.63
2022-11-03T19:35:30.033Z,11.63
2022-11-03T19:38:10.331Z,11.64
2022-11-03T19:40:39.158Z,11.67
2022-11-03T19:43:09.548Z,11.69
2022-11-03T19:45:36.215Z,11.68
2022-11-03T19:48:23.803Z,11.68
2022-11-03T19:50:51.720Z,11.68
2022-11-03T19:53:22.208Z,11.66
2022-11-03T19:55:49.765Z,11.65
2022-11-03T19:58:19.935Z,11.63
2022-11-03T20:00:47.989Z,11.62
2022-11-03T20:03:15.034Z,11.64
2022-11-03T20:05:48.951Z,11.65
2022-11-03T20:08:19.304Z,11.66
2022-11-03T20:10:48.207Z,11.66
2022-11-03T20:13:17.645Z,11.70
2022-11-03T20:15:44.322Z,11.71
2022-11-03T20:18:13.066Z,11.69
2022-11-03T20:20:41.440Z,11.68
2022-11-03T20:23:25.692Z,11.71
2022-11-03T20:25:52.663Z,11.69
2022-11-03T20:28:24.965Z,11.68
2022-11-03T20:30:52.813Z,11.66
2022-11-03T20:33:21.133Z,11.65
2022-11-03T20:35:49.909Z,11.64
2022-11-03T20:38:19.361Z,11.62
2022-11-03T20:40:48.010Z,11.61
2022-11-03T20:43:26.543Z,11.60
2022-11-03T20:45:54.742Z,11.59
2022-11-03T20:48:21.951Z,11.59
2022-11-03T20:50:48.838Z,11.57
2022-11-03T20:53:18.260Z,11.52
2022-11-03T20:55:46.151Z,11.50
2022-11-03T20:58:17.827Z,11.46
2022-11-03T21:00:46.384Z,11.42
2022-11-03T21:03:37.617Z,11.40
2022-11-03T21:06:16.399Z,11.33
2022-11-03T21:08:44.740Z,11.31
2022-11-03T21:11:30.711Z,11.27
2022-11-03T21:14:01.302Z,11.21
2022-11-03T21:16:45.235Z,11.19
2022-11-03T21:19:30.496Z,11.16
2022-11-03T21:21:57.123Z,11.03
2022-11-03T21:24:23.762Z,11.05
2022-11-03T21:26:50.461Z,11.05
2022-11-03T21:29:32.969Z,11.02
2022-11-03T21:32:03.884Z,10.98
2022-11-03T21:34:30.608Z,10.96
2022-11-03T21:36:57.242Z,10.94
2022-11-03T21:39:23.901Z,10.71
2022-11-03T21:42:06.002Z,10.77
2022-11-03T21:44:32.707Z,10.76
2022-11-03T21:46:59.265Z,10.73
2022-11-03T21:49:41.174Z,10.71
2022-11-03T21:52:08.202Z,10.67
2022-11-03T21:54:34.848Z,10.63
2022-11-03T21:57:01.489Z,10.55
2022-11-03T21:59:28.118Z,10.51
2022-11-03T22:01:55.296Z,10.50
2022-11-03T22:04:23.116Z,10.46
2022-11-03T22:06:50.495Z,10.22
2022-11-03T22:09:17.783Z,10.31
2022-11-03T22:11:44.492Z,10.32
2022-11-03T22:14:12.821Z,10.35
2022-11-03T22:16:40.894Z,10.26
2022-11-03T22:19:28.787Z,10.17
2022-11-03T22:22:10.882Z,10.25
2022-11-03T22:24:58.187Z,10.32
2022-11-03T22:27:25.862Z,10.33
2022-11-03T22:30:08.043Z,10.32
2022-11-03T22:32:35.551Z,10.32
2022-11-03T22:35:18.057Z,10.21
2022-11-03T22:37:44.822Z,10.19
2022-11-03T22:40:26.828Z,10.19
2022-11-03T22:43:08.981Z,10.19
2022-11-03T22:45:53.238Z,10.17
2022-11-03T22:48:23.226Z,10.08
2022-11-03T22:51:07.667Z,10.01
2022-11-03T22:53:51.187Z,9.93
2022-11-03T22:56:18.853Z,9.96
2022-11-03T22:58:45.655Z,10.00
2022-11-03T23:01:16.762Z,10.00
2022-11-03T23:03:44.974Z,9.91
2022-11-03T23:06:14.766Z,9.93
2022-11-03T23:08:42.835Z,9.94
2022-11-03T23:11:15.988Z,9.84
2022-11-03T23:13:44.548Z,9.93
2022-11-03T23:16:16.480Z,9.87
2022-11-03T23:18:58.758Z,9.90
2022-11-03T23:21:25.882Z,9.82
2022-11-03T23:24:07.734Z,9.84
2022-11-03T23:26:34.545Z,9.82
2022-11-03T23:29:01.216Z,9.86
2022-11-03T23:31:27.842Z,9.89
2022-11-03T23:33:55.067Z,9.89
2022-11-03T23:36:26.049Z,9.88
2022-11-03T23:38:52.685Z,9.86
2022-11-03T23:41:19.952Z,9.84
2022-11-03T23:43:47.190Z,9.85
2022-11-03T23:46:31.482Z,9.86
2022-11-03T23:49:01.359Z,9.87
2022-11-03T23:51:30.116Z,9.88
2022-11-03T23:53:58.404Z,9.88
2022-11-03T23:56:43.295Z,9.90
2022-11-03T23:59:11.157Z,9.92
